sensor_id;sensor_type;location;lat;lon;timestamp;P1;durP1;ratioP1;P2;durP2;ratioP2
25649;SDS011;13505;45.196;5.696;2023-02-13T05:02:45;29.80;;;14.10;;
25649;SDS011;13505;45.196;5.696;2023-02-13T05:07:36;34.58;;;14.25;;
25649;SDS011;13505;45.196;5.696;2023-02-13T05:12:26;36.90;;;16.63;;
25649;SDS011;13505;45.196;5.696;2023-02-13T05:17:16;36.08;;;18.13;;
25649;SDS011;13505;45.196;5.696;2023-02-13T05:22:07;39.88;;;17.25;;
25649;SDS011;13505;45.196;5.696;2023-02-13T05:27:24;34.67;;;17.75;;
25649;SDS011;13505;45.196;5.696;2023-02-13T05:32:14;41.38;;;16.92;;
25649;SDS011;13505;45.196;5.696;2023-02-13T05:37:05;39.70;;;18.33;;
25649;SDS011;13505;45.196;5.696;2023-02-13T05:41:55;40.80;;;18.40;;
25649;SDS011;13505;45.196;5.696;2023-02-13T05:46:46;45.58;;;19.60;;
25649;SDS011;13505;45.196;5.696;2023-02-13T05:51:36;32.88;;;16.85;;
25649;SDS011;13505;45.196;5.696;2023-02-13T05:56:27;33.58;;;14.07;;
25649;SDS011;13505;45.196;5.696;2023-02-13T06:01:17;29.08;;;13.82;;
25649;SDS011;13505;45.196;5.696;2023-02-13T06:06:08;35.95;;;14.30;;
25649;SDS011;13505;45.196;5.696;2023-02-13T06:10:58;18.25;;;8.95;;
25649;SDS011;13505;45.196;5.696;2023-02-13T06:15:49;17.50;;;8.57;;
25649;SDS011;13505;45.196;5.696;2023-02-13T06:20:39;16.83;;;7.55;;
25649;SDS011;13505;45.196;5.696;2023-02-13T06:25:30;16.13;;;8.10;;
25649;SDS011;13505;45.196;5.696;2023-02-13T06:30:20;17.05;;;7.90;;
25649;SDS011;13505;45.196;5.696;2023-02-13T06:35:11;15.05;;;8.32;;
25649;SDS011;13505;45.196;5.696;2023-02-13T06:40:02;22.92;;;10.55;;
25649;SDS011;13505;45.196;5.696;2023-02-13T06:44:52;28.15;;;13.40;;
25649;SDS011;13505;45.196;5.696;2023-02-13T06:49:43;36.90;;;17.83;;
25649;SDS011;13505;45.196;5.696;2023-02-13T06:54:33;35.80;;;16.58;;
25649;SDS011;13505;45.196;5.696;2023-02-13T06:59:23;40.53;;;18.05;;
25649;SDS011;13505;45.196;5.696;2023-02-13T07:04:14;36.97;;;17.10;;
25649;SDS011;13505;45.196;5.696;2023-02-13T07:09:04;32.35;;;16.20;;
25649;SDS011;13505;45.196;5.696;2023-02-13T07:13:55;38.33;;;17.23;;
25649;SDS011;13505;45.196;5.696;2023-02-13T07:18:45;37.10;;;17.40;;
25649;SDS011;13505;45.196;5.696;2023-02-13T07:23:35;37.72;;;17.63;;
25649;SDS011;13505;45.196;5.696;2023-02-13T07:28:26;37.80;;;16.25;;
25649;SDS011;13505;45.196;5.696;2023-02-13T07:33:17;31.67;;;16.08;;
25649;SDS011;13505;45.196;5.696;2023-02-13T07:38:08;37.88;;;18.38;;
25649;SDS011;13505;45.196;5.696;2023-02-13T07:42:59;35.58;;;17.55;;
25649;SDS011;13505;45.196;5.696;2023-02-13T07:47:50;37.53;;;17.35;;
25649;SDS011;13505;45.196;5.696;2023-02-13T07:52:40;37.85;;;18.77;;
25649;SDS011;13505;45.196;5.696;2023-02-13T07:57:31;36.78;;;16.75;;
25649;SDS011;13505;45.196;5.696;2023-02-13T08:02:22;36.33;;;17.20;;
25649;SDS011;13505;45.196;5.696;2023-02-13T08:07:13;42.75;;;19.92;;
25649;SDS011;13505;45.196;5.696;2023-02-13T08:12:06;44.15;;;20.85;;
25649;SDS011;13505;45.196;5.696;2023-02-13T08:16:58;23.02;;;12.57;;
25649;SDS011;13505;45.196;5.696;2023-02-13T08:21:50;28.48;;;14.52;;
25649;SDS011;13505;45.196;5.696;2023-02-13T08:26:40;27.23;;;12.98;;
25649;SDS011;13505;45.196;5.696;2023-02-13T08:31:31;29.80;;;14.57;;
25649;SDS011;13505;45.196;5.696;2023-02-13T08:36:21;40.50;;;18.30;;
25649;SDS011;13505;45.196;5.696;2023-02-13T08:41:12;29.15;;;15.30;;
25649;SDS011;13505;45.196;5.696;2023-02-13T08:46:03;28.60;;;14.18;;
25649;SDS011;13505;45.196;5.696;2023-02-13T08:50:53;30.58;;;13.27;;
25649;SDS011;13505;45.196;5.696;2023-02-13T08:55:56;27.10;;;13.07;;
25649;SDS011;13505;45.196;5.696;2023-02-13T09:00:46;30.85;;;14.27;;
25649;SDS011;13505;45.196;5.696;2023-02-13T09:05:37;27.15;;;14.48;;
25649;SDS011;13505;45.196;5.696;2023-02-13T09:10:27;30.77;;;14.55;;
25649;SDS011;13505;45.196;5.696;2023-02-13T09:15:18;31.25;;;15.30;;
25649;SDS011;13505;45.196;5.696;2023-02-13T09:20:09;31.05;;;15.07;;
25649;SDS011;13505;45.196;5.696;2023-02-13T09:25:01;34.65;;;15.98;;
25649;SDS011;13505;45.196;5.696;2023-02-13T09:29:53;38.17;;;16.85;;
25649;SDS011;13505;45.196;5.696;2023-02-13T09:34:43;30.38;;;16.00;;
25649;SDS011;13505;45.196;5.696;2023-02-13T09:39:33;30.05;;;15.82;;
25649;SDS011;13505;45.196;5.696;2023-02-13T09:49:22;29.25;;;15.82;;
25649;SDS011;13505;45.196;5.696;2023-02-13T09:54:19;35.35;;;15.10;;
25649;SDS011;13505;45.196;5.696;2023-02-13T10:09:56;27.40;;;13.85;;
25649;SDS011;13505;45.196;5.696;2023-02-13T10:14:59;30.60;;;14.63;;
25649;SDS011;13505;45.196;5.696;2023-02-13T10:30:54;25.20;;;12.75;;
25649;SDS011;13505;45.196;5.696;2023-02-13T10:40:43;26.67;;;11.30;;
25649;SDS011;13505;45.196;5.696;2023-02-13T10:55:59;17.92;;;9.93;;
25649;SDS011;13505;45.196;5.696;2023-02-13T11:01:15;17.23;;;9.57;;
25649;SDS011;13505;45.196;5.696;2023-02-13T11:06:11;16.13;;;8.50;;
25649;SDS011;13505;45.196;5.696;2023-02-13T11:11:26;16.40;;;9.18;;
25649;SDS011;13505;45.196;5.696;2023-02-13T11:16:26;16.80;;;8.65;;
25649;SDS011;13505;45.196;5.696;2023-02-13T11:21:20;21.35;;;8.90;;
25649;SDS011;13505;45.196;5.696;2023-02-13T11:26:34;17.98;;;8.93;;
25649;SDS011;13505;45.196;5.696;2023-02-13T11:31:31;17.23;;;8.63;;
25649;SDS011;13505;45.196;5.696;2023-02-13T11:36:31;17.45;;;8.55;;
25649;SDS011;13505;45.196;5.696;2023-02-13T11:41:22;20.57;;;9.90;;
25649;SDS011;13505;45.196;5.696;2023-02-13T11:46:21;18.83;;;9.95;;
25649;SDS011;13505;45.196;5.696;2023-02-13T11:51:15;20.92;;;10.90;;
25649;SDS011;13505;45.196;5.696;2023-02-13T11:56:12;19.85;;;10.55;;
25649;SDS011;13505;45.196;5.696;2023-02-13T12:06:02;29.60;;;12.93;;
25649;SDS011;13505;45.196;5.696;2023-02-13T12:10:59;33.10;;;13.38;;
25649;SDS011;13505;45.196;5.696;2023-02-13T12:15:56;24.65;;;13.68;;
25649;SDS011;13505;45.196;5.696;2023-02-13T12:31:06;23.30;;;10.90;;
25649;SDS011;13505;45.196;5.696;2023-02-13T13:22:20;10.75;;;5.05;;
25649;SDS011;13505;45.196;5.696;2023-02-13T13:27:19;14.52;;;5.53;;
25649;SDS011;13505;45.196;5.696;2023-02-13T13:32:18;15.38;;;6.30;;
25649;SDS011;13505;45.196;5.696;2023-02-13T13:57:23;20.10;;;7.28;;
25649;SDS011;13505;45.196;5.696;2023-02-13T14:07:13;13.20;;;6.90;;
25649;SDS011;13505;45.196;5.696;2023-02-13T14:17:14;17.55;;;7.15;;
25649;SDS011;13505;45.196;5.696;2023-02-13T14:22:24;23.50;;;7.55;;
25649;SDS011;13505;45.196;5.696;2023-02-13T14:27:21;13.93;;;7.30;;
25649;SDS011;13505;45.196;5.696;2023-02-13T14:32:14;12.63;;;7.10;;
25649;SDS011;13505;45.196;5.696;2023-02-13T14:37:18;16.08;;;7.10;;
25649;SDS011;13505;45.196;5.696;2023-02-13T14:42:20;15.27;;;7.57;;
25649;SDS011;13505;45.196;5.696;2023-02-13T14:47:21;19.27;;;8.23;;
25649;SDS011;13505;45.196;5.696;2023-02-13T14:52:15;16.42;;;8.50;;
25649;SDS011;13505;45.196;5.696;2023-02-13T15:07:11;17.25;;;7.57;;
25649;SDS011;13505;45.196;5.696;2023-02-13T15:12:22;17.33;;;7.43;;
25649;SDS011;13505;45.196;5.696;2023-02-13T15:17:18;14.98;;;8.05;;
25649;SDS011;13505;45.196;5.696;2023-02-13T15:22:25;15.15;;;8.13;;
25649;SDS011;13505;45.196;5.696;2023-02-13T15:27:24;16.08;;;8.43;;
25649;SDS011;13505;45.196;5.696;2023-02-13T15:32:17;15.38;;;8.48;;
25649;SDS011;13505;45.196;5.696;2023-02-13T15:37:17;17.23;;;8.40;;
25649;SDS011;13505;45.196;5.696;2023-02-13T15:42:09;17.15;;;8.52;;
25649;SDS011;13505;45.196;5.696;2023-02-13T15:47:03;17.40;;;8.32;;
25649;SDS011;13505;45.196;5.696;2023-02-13T15:52:30;21.88;;;9.57;;
25649;SDS011;13505;45.196;5.696;2023-02-13T15:57:23;28.40;;;9.63;;
25649;SDS011;13505;45.196;5.696;2023-02-13T16:02:38;20.83;;;10.52;;
25649;SDS011;13505;45.196;5.696;2023-02-13T16:07:45;22.75;;;10.00;;
25649;SDS011;13505;45.196;5.696;2023-02-13T16:12:44;20.67;;;9.55;;
25649;SDS011;13505;45.196;5.696;2023-02-13T16:17:37;24.30;;;9.10;;
25649;SDS011;13505;45.196;5.696;2023-02-13T16:27:24;16.65;;;8.90;;
25649;SDS011;13505;45.196;5.696;2023-02-13T16:32:19;19.20;;;9.07;;
25649;SDS011;13505;45.196;5.696;2023-02-13T16:37:27;19.63;;;10.27;;
25649;SDS011;13505;45.196;5.696;2023-02-13T16:42:20;22.50;;;11.05;;
25649;SDS011;13505;45.196;5.696;2023-02-13T16:47:21;18.50;;;10.30;;
25649;SDS011;13505;45.196;5.696;2023-02-13T16:52:17;21.10;;;11.23;;
25649;SDS011;13505;45.196;5.696;2023-02-13T17:07:01;29.57;;;14.83;;
25649;SDS011;13505;45.196;5.696;2023-02-13T17:11:52;25.03;;;11.87;;
25649;SDS011;13505;45.196;5.696;2023-02-13T17:16:42;22.88;;;10.32;;
25649;SDS011;13505;45.196;5.696;2023-02-13T17:21:33;31.67;;;10.85;;
25649;SDS011;13505;45.196;5.696;2023-02-13T17:26:23;27.00;;;12.30;;
25649;SDS011;13505;45.196;5.696;2023-02-13T17:31:13;30.88;;;13.43;;
25649;SDS011;13505;45.196;5.696;2023-02-13T17:36:04;31.38;;;15.70;;
25649;SDS011;13505;45.196;5.696;2023-02-13T17:40:55;29.10;;;12.82;;
25649;SDS011;13505;45.196;5.696;2023-02-13T17:45:46;23.85;;;12.93;;
25649;SDS011;13505;45.196;5.696;2023-02-13T17:50:37;30.50;;;15.75;;
25649;SDS011;13505;45.196;5.696;2023-02-13T17:55:29;33.85;;;16.17;;
25649;SDS011;13505;45.196;5.696;2023-02-13T18:00:22;43.95;;;20.20;;
25649;SDS011;13505;45.196;5.696;2023-02-13T18:05:14;37.78;;;18.67;;
25649;SDS011;13505;45.196;5.696;2023-02-13T18:10:15;43.67;;;19.67;;
25649;SDS011;13505;45.196;5.696;2023-02-13T18:15:07;35.20;;;17.67;;
25649;SDS011;13505;45.196;5.696;2023-02-13T18:19:58;33.65;;;17.52;;
25649;SDS011;13505;45.196;5.696;2023-02-13T18:24:49;33.50;;;16.23;;
25649;SDS011;13505;45.196;5.696;2023-02-13T18:29:39;32.95;;;16.38;;
25649;SDS011;13505;45.196;5.696;2023-02-13T18:34:30;32.85;;;15.98;;
25649;SDS011;13505;45.196;5.696;2023-02-13T18:39:20;30.02;;;15.07;;
25649;SDS011;13505;45.196;5.696;2023-02-13T18:44:11;29.27;;;14.70;;
25649;SDS011;13505;45.196;5.696;2023-02-13T18:49:01;23.98;;;10.63;;
25649;SDS011;13505;45.196;5.696;2023-02-13T18:53:52;22.98;;;10.65;;
25649;SDS011;13505;45.196;5.696;2023-02-13T18:58:42;25.95;;;10.77;;
25649;SDS011;13505;45.196;5.696;2023-02-13T19:03:32;18.57;;;8.30;;
25649;SDS011;13505;45.196;5.696;2023-02-13T19:08:23;16.35;;;8.05;;
25649;SDS011;13505;45.196;5.696;2023-02-13T19:13:14;22.67;;;8.48;;
25649;SDS011;13505;45.196;5.696;2023-02-13T19:18:05;17.75;;;8.32;;
25649;SDS011;13505;45.196;5.696;2023-02-13T19:22:55;15.48;;;8.63;;
25649;SDS011;13505;45.196;5.696;2023-02-13T19:27:45;17.50;;;10.00;;
25649;SDS011;13505;45.196;5.696;2023-02-13T19:32:36;16.77;;;9.13;;
25649;SDS011;13505;45.196;5.696;2023-02-13T19:37:26;42.55;;;19.33;;
25649;SDS011;13505;45.196;5.696;2023-02-13T19:42:17;25.00;;;12.05;;
25649;SDS011;13505;45.196;5.696;2023-02-13T19:47:07;24.80;;;12.18;;
25649;SDS011;13505;45.196;5.696;2023-02-13T19:51:57;17.52;;;9.88;;
25649;SDS011;13505;45.196;5.696;2023-02-13T19:56:48;17.83;;;9.23;;
25649;SDS011;13505;45.196;5.696;2023-02-13T20:01:38;19.00;;;9.18;;
25649;SDS011;13505;45.196;5.696;2023-02-13T20:06:32;17.77;;;9.73;;
25649;SDS011;13505;45.196;5.696;2023-02-13T20:11:24;15.65;;;8.80;;
25649;SDS011;13505;45.196;5.696;2023-02-13T20:16:15;22.15;;;9.48;;
25649;SDS011;13505;45.196;5.696;2023-02-13T20:21:07;16.08;;;8.90;;
25649;SDS011;13505;45.196;5.696;2023-02-13T20:26:05;17.58;;;8.95;;
25649;SDS011;13505;45.196;5.696;2023-02-13T20:30:58;17.73;;;8.88;;
25649;SDS011;13505;45.196;5.696;2023-02-13T20:35:49;14.68;;;7.60;;
25649;SDS011;13505;45.196;5.696;2023-02-13T20:40:40;19.95;;;9.27;;
25649;SDS011;13505;45.196;5.696;2023-02-13T20:45:30;24.52;;;10.95;;
25649;SDS011;13505;45.196;5.696;2023-02-13T20:50:20;23.33;;;10.95;;
25649;SDS011;13505;45.196;5.696;2023-02-13T20:55:11;24.05;;;11.55;;
25649;SDS011;13505;45.196;5.696;2023-02-13T21:00:03;23.23;;;11.10;;
25649;SDS011;13505;45.196;5.696;2023-02-13T21:04:54;19.33;;;9.63;;
25649;SDS011;13505;45.196;5.696;2023-02-13T21:09:45;16.88;;;9.98;;
25649;SDS011;13505;45.196;5.696;2023-02-13T21:14:35;18.77;;;9.90;;
25649;SDS011;13505;45.196;5.696;2023-02-13T21:19:26;19.48;;;9.98;;
25649;SDS011;13505;45.196;5.696;2023-02-13T21:24:18;20.38;;;9.95;;
25649;SDS011;13505;45.196;5.696;2023-02-13T21:29:10;23.65;;;9.80;;
25649;SDS011;13505;45.196;5.696;2023-02-13T21:34:04;18.85;;;8.52;;
25649;SDS011;13505;45.196;5.696;2023-02-13T21:38:56;16.60;;;8.55;;
25649;SDS011;13505;45.196;5.696;2023-02-13T21:43:47;20.08;;;8.07;;
25649;SDS011;13505;45.196;5.696;2023-02-13T21:48:39;15.70;;;7.47;;
25649;SDS011;13505;45.196;5.696;2023-02-13T21:53:30;14.77;;;6.55;;
25649;SDS011;13505;45.196;5.696;2023-02-13T21:58:20;13.27;;;6.32;;
25649;SDS011;13505;45.196;5.696;2023-02-13T22:03:11;13.85;;;6.90;;
25649;SDS011;13505;45.196;5.696;2023-02-13T22:08:01;13.98;;;7.53;;
25649;SDS011;13505;45.196;5.696;2023-02-13T22:13:00;20.65;;;8.27;;
25649;SDS011;13505;45.196;5.696;2023-02-13T22:17:51;14.98;;;7.97;;
25649;SDS011;13505;45.196;5.696;2023-02-13T22:22:41;14.35;;;6.45;;
25649;SDS011;13505;45.196;5.696;2023-02-13T22:27:31;11.63;;;7.07;;
25649;SDS011;13505;45.196;5.696;2023-02-13T22:32:22;13.93;;;7.20;;
25649;SDS011;13505;45.196;5.696;2023-02-13T22:37:12;13.73;;;6.80;;
25649;SDS011;13505;45.196;5.696;2023-02-13T22:42:02;13.73;;;6.30;;
25649;SDS011;13505;45.196;5.696;2023-02-13T22:46:53;12.05;;;5.97;;
25649;SDS011;13505;45.196;5.696;2023-02-13T22:51:43;11.95;;;6.05;;
25649;SDS011;13505;45.196;5.696;2023-02-13T22:56:33;14.73;;;6.65;;
